createdAt,value
2023-01-31T00:01:10.150Z,2.50
2023-01-31T00:02:11.949Z,2.50
2023-01-31T00:03:13.842Z,2.50
2023-01-31T00:04:15.482Z,2.50
2023-01-31T00:05:18.346Z,2.50
2023-01-31T00:06:21.583Z,2.50
2023-01-31T00:07:23.356Z,2.50
2023-01-31T00:08:25.016Z,2.50
2023-01-31T00:09:26.696Z,2.60
2023-01-31T00:10:28.466Z,2.60
2023-01-31T00:11:30.384Z,2.60
2023-01-31T00:12:32.161Z,2.60
2023-01-31T00:13:34.046Z,2.60
2023-01-31T00:14:35.980Z,2.60
2023-01-31T00:15:37.752Z,2.60
2023-01-31T00:16:39.935Z,2.70
2023-01-31T00:17:41.751Z,2.70
2023-01-31T00:18:43.868Z,2.70
2023-01-31T00:19:45.550Z,2.70
2023-01-31T00:20:47.168Z,2.70
2023-01-31T00:21:48.945Z,2.70
2023-01-31T00:22:50.581Z,2.70
2023-01-31T00:23:52.809Z,2.70
2023-01-31T00:24:54.504Z,2.80
2023-01-31T00:26:06.458Z,2.80
2023-01-31T00:27:08.549Z,2.80
2023-01-31T00:28:10.177Z,2.80
2023-01-31T00:29:11.982Z,2.80
2023-01-31T00:30:13.679Z,2.80
2023-01-31T00:31:16.239Z,2.80
2023-01-31T00:32:18.064Z,2.80
2023-01-31T00:33:20.155Z,2.80
2023-01-31T00:34:21.763Z,2.80
2023-01-31T00:35:23.592Z,2.80
2023-01-31T00:36:26.653Z,2.80
2023-01-31T00:37:28.327Z,2.80
2023-01-31T00:38:30.271Z,2.90
2023-01-31T00:39:32.137Z,2.80
2023-01-31T00:40:33.875Z,2.80
2023-01-31T00:41:36.659Z,2.90
2023-01-31T00:42:39.096Z,2.90
2023-01-31T00:43:41.086Z,2.90
2023-01-31T00:44:42.838Z,2.90
2023-01-31T00:45:44.618Z,2.80
2023-01-31T00:46:46.356Z,2.80
2023-01-31T00:47:48.016Z,2.90
2023-01-31T00:48:50.313Z,2.90
2023-01-31T00:49:52.017Z,2.90
2023-01-31T00:50:53.693Z,2.90
2023-01-31T00:51:55.341Z,2.90
2023-01-31T00:52:57.030Z,2.90
2023-01-31T00:53:59.747Z,2.90
2023-01-31T00:55:01.401Z,2.90
2023-01-31T00:56:04.696Z,2.80
2023-01-31T00:57:06.487Z,2.80
2023-01-31T00:58:08.141Z,2.90
2023-01-31T00:59:09.795Z,2.80
2023-01-31T01:00:11.861Z,2.80
2023-01-31T01:01:14.960Z,2.80
2023-01-31T01:02:16.651Z,2.80
2023-01-31T01:03:18.729Z,2.80
2023-01-31T01:04:20.455Z,2.80
2023-01-31T01:05:22.371Z,2.80
2023-01-31T01:06:24.753Z,2.80
2023-01-31T01:07:26.416Z,2.80
2023-01-31T01:08:28.872Z,2.80
2023-01-31T01:09:30.976Z,2.80
2023-01-31T01:10:33.368Z,2.90
2023-01-31T01:11:36.052Z,2.80
2023-01-31T01:12:38.012Z,2.90
2023-01-31T01:13:40.148Z,2.90
2023-01-31T01:14:42.160Z,2.90
2023-01-31T01:15:43.772Z,2.90
2023-01-31T01:16:45.758Z,2.90
2023-01-31T01:17:47.464Z,2.90
2023-01-31T01:18:50.318Z,2.90
2023-01-31T01:19:51.963Z,2.90
2023-01-31T01:20:53.749Z,2.90
2023-01-31T01:21:55.925Z,2.90
2023-01-31T01:22:59.394Z,2.90
2023-01-31T01:24:02.265Z,2.90
2023-01-31T01:25:04.085Z,2.90
2023-01-31T01:26:06.323Z,2.80
2023-01-31T01:27:08.010Z,2.80
2023-01-31T01:28:09.682Z,2.80
2023-01-31T01:29:11.437Z,2.80
2023-01-31T01:30:13.476Z,2.80
2023-01-31T01:31:16.686Z,2.70
2023-01-31T01:32:18.460Z,2.70
2023-01-31T01:33:20.224Z,2.70
2023-01-31T01:34:21.844Z,2.80
2023-01-31T01:35:23.629Z,2.70
2023-01-31T01:36:25.491Z,2.80
2023-01-31T01:37:27.326Z,2.70
2023-01-31T01:38:29.298Z,2.80
2023-01-31T01:39:31.057Z,2.80
2023-01-31T01:40:36.713Z,2.70
2023-01-31T01:41:38.899Z,2.80
2023-01-31T01:42:40.538Z,2.80
2023-01-31T01:44:02.417Z,2.80
2023-01-31T01:45:15.819Z,2.80
2023-01-31T01:46:25.165Z,2.80
2023-01-31T01:47:46.794Z,2.80
2023-01-31T01:48:50.941Z,2.80
2023-01-31T01:49:58.697Z,2.80
2023-01-31T01:51:02.007Z,2.80
2023-01-31T01:52:05.465Z,2.80
2023-01-31T01:53:11.749Z,2.80
2023-01-31T01:54:15.470Z,2.80
2023-01-31T01:55:18.625Z,2.80
2023-01-31T01:56:23.689Z,2.90
2023-01-31T01:57:30.612Z,2.90
2023-01-31T01:58:47.806Z,2.90
2023-01-31T02:00:01.306Z,2.90
2023-01-31T02:01:06.539Z,2.90
2023-01-31T02:02:08.471Z,2.90
2023-01-31T02:03:10.525Z,2.90
2023-01-31T02:04:15.882Z,2.90
2023-01-31T02:05:20.735Z,2.80
2023-01-31T02:06:22.666Z,2.80
2023-01-31T02:07:24.289Z,2.80
2023-01-31T02:08:30.063Z,2.80
2023-01-31T02:09:52.194Z,2.80
2023-01-31T02:11:16.051Z,2.80
2023-01-31T02:12:17.750Z,2.80
2023-01-31T02:13:19.751Z,2.80
2023-01-31T02:14:21.606Z,2.80
2023-01-31T02:15:23.430Z,2.90
2023-01-31T02:16:25.068Z,2.90
2023-01-31T02:17:27.973Z,2.80
2023-01-31T02:18:30.069Z,2.90
2023-01-31T02:19:31.989Z,2.90
2023-01-31T02:20:34.489Z,2.90
2023-01-31T02:21:53.822Z,2.90
2023-01-31T02:22:58.076Z,2.90
2023-01-31T02:24:09.082Z,2.90
2023-01-31T02:25:26.014Z,2.90
2023-01-31T02:26:46.911Z,2.90
2023-01-31T02:27:48.680Z,2.80
2023-01-31T02:29:08.729Z,2.80
2023-01-31T02:30:19.716Z,2.80
2023-01-31T02:32:46.948Z,2.80
2023-01-31T02:33:51.332Z,2.80
2023-01-31T02:35:11.805Z,2.80
2023-01-31T02:36:13.391Z,2.80
2023-01-31T02:37:19.769Z,2.80
2023-01-31T02:38:56.329Z,2.80
2023-01-31T02:39:58.026Z,2.80
2023-01-31T02:40:59.673Z,2.80
2023-01-31T02:42:13.840Z,2.80
2023-01-31T02:43:56.642Z,2.80
2023-01-31T02:45:18.540Z,2.80
2023-01-31T02:46:21.435Z,2.80
2023-01-31T02:47:25.820Z,2.90
2023-01-31T02:48:39.442Z,2.80
2023-01-31T02:49:46.370Z,2.80
2023-01-31T02:50:53.983Z,2.80
2023-01-31T02:52:15.743Z,2.80
2023-01-31T02:53:32.337Z,2.80
2023-01-31T02:54:54.518Z,2.80
2023-01-31T02:56:18.500Z,2.80
2023-01-31T02:57:21.112Z,2.90
2023-01-31T02:58:25.028Z,2.80
2023-01-31T02:59:28.367Z,2.90
2023-01-31T03:00:32.967Z,2.90
2023-01-31T03:01:36.788Z,2.90
2023-01-31T03:02:38.734Z,2.90
2023-01-31T03:03:41.003Z,2.90
2023-01-31T03:04:43.619Z,2.90
2023-01-31T03:05:45.431Z,2.90
2023-01-31T03:06:54.762Z,2.90
2023-01-31T03:07:59.911Z,2.90
2023-01-31T03:09:09.990Z,2.90
2023-01-31T03:10:20.957Z,2.90
2023-01-31T03:11:25.623Z,3.00
2023-01-31T03:12:30.716Z,3.00
2023-01-31T03:13:51.356Z,3.00
2023-01-31T03:15:01.726Z,3.00
2023-01-31T03:16:31.381Z,3.00
2023-01-31T03:17:41.929Z,2.90
2023-01-31T03:19:14.015Z,3.00
2023-01-31T03:20:23.703Z,2.90
2023-01-31T03:21:36.377Z,2.90
2023-01-31T03:22:40.275Z,2.90
2023-01-31T03:23:45.084Z,2.80
2023-01-31T03:24:48.210Z,2.80
2023-01-31T03:25:50.100Z,2.70
2023-01-31T03:26:53.030Z,2.60
2023-01-31T03:27:57.252Z,2.50
2023-01-31T03:29:01.068Z,2.50
2023-01-31T03:30:06.684Z,2.50
2023-01-31T03:31:19.173Z,2.40
2023-01-31T03:32:24.791Z,2.40
2023-01-31T03:33:30.056Z,2.40
2023-01-31T03:34:32.587Z,2.40
2023-01-31T03:35:36.069Z,2.30
2023-01-31T03:36:50.229Z,2.30
2023-01-31T03:37:57.477Z,2.30
2023-01-31T03:39:15.296Z,2.20
2023-01-31T03:40:21.657Z,2.20
2023-01-31T03:41:43.896Z,2.20
2023-01-31T03:42:45.649Z,2.10
2023-01-31T03:44:01.743Z,2.10
2023-01-31T03:45:20.543Z,2.10
2023-01-31T03:46:28.947Z,2.10
2023-01-31T03:47:33.321Z,2.10
2023-01-31T03:48:37.150Z,2.10
2023-01-31T03:49:41.934Z,2.10
2023-01-31T03:50:46.523Z,2.20
2023-01-31T03:51:51.190Z,2.20
2023-01-31T03:52:56.886Z,2.20
2023-01-31T03:54:00.632Z,2.20
2023-01-31T03:55:04.496Z,2.20
2023-01-31T03:56:21.897Z,2.20
2023-01-31T03:57:32.435Z,2.20
2023-01-31T03:58:36.350Z,2.20
2023-01-31T03:59:38.891Z,2.20
2023-01-31T04:00:41.966Z,2.20
2023-01-31T04:01:48.479Z,2.30
2023-01-31T04:02:52.874Z,2.30
2023-01-31T04:04:01.287Z,2.30
2023-01-31T04:05:10.825Z,2.30
2023-01-31T04:06:13.364Z,2.30
2023-01-31T04:07:15.040Z,2.30
2023-01-31T04:08:16.891Z,2.40
2023-01-31T04:09:18.545Z,2.40
2023-01-31T04:10:20.278Z,2.40
2023-01-31T04:11:24.555Z,2.50
2023-01-31T04:12:26.217Z,2.50
2023-01-31T04:13:27.924Z,2.50
2023-01-31T04:14:29.776Z,2.50
2023-01-31T04:15:31.475Z,2.50
2023-01-31T04:16:33.388Z,2.50
2023-01-31T04:17:35.217Z,2.50
2023-01-31T04:18:38.625Z,2.60
2023-01-31T04:19:40.405Z,2.60
2023-01-31T04:20:42.088Z,2.60
2023-01-31T04:21:43.729Z,2.60
2023-01-31T04:22:45.393Z,2.60
2023-01-31T04:23:47.082Z,2.60
2023-01-31T04:24:49.068Z,2.60
2023-01-31T04:25:52.697Z,2.60
2023-01-31T04:26:54.328Z,2.60
2023-01-31T04:27:56.150Z,2.60
2023-01-31T04:28:57.841Z,2.60
2023-01-31T04:29:59.523Z,2.60
2023-01-31T04:31:02.459Z,2.60
2023-01-31T04:32:04.682Z,2.60
2023-01-31T04:33:06.467Z,2.60
2023-01-31T04:34:08.247Z,2.60
2023-01-31T04:35:10.256Z,2.60
2023-01-31T04:36:11.981Z,2.60
2023-01-31T04:37:13.644Z,2.60
2023-01-31T04:38:15.484Z,2.60
2023-01-31T04:39:17.269Z,2.60
2023-01-31T04:40:19.079Z,2.60
2023-01-31T04:41:20.717Z,2.60
2023-01-31T04:42:22.417Z,2.60
2023-01-31T04:43:24.209Z,2.60
2023-01-31T04:44:25.985Z,2.60
2023-01-31T04:45:27.637Z,2.60
2023-01-31T04:46:29.479Z,2.60
2023-01-31T04:47:31.871Z,2.60
2023-01-31T04:48:34.157Z,2.60
2023-01-31T04:49:35.761Z,2.60
2023-01-31T04:50:37.861Z,2.60
2023-01-31T04:51:39.516Z,2.60
2023-01-31T04:52:41.530Z,2.60
2023-01-31T04:53:44.529Z,2.60
2023-01-31T04:54:46.195Z,2.60
2023-01-31T04:55:48.054Z,2.60
2023-01-31T04:56:49.711Z,2.60
2023-01-31T04:57:51.372Z,2.60
2023-01-31T04:58:53.061Z,2.60
2023-01-31T04:59:54.856Z,2.60
2023-01-31T05:00:56.821Z,2.60
2023-01-31T05:01:58.840Z,2.70
2023-01-31T05:03:01.507Z,2.70
2023-01-31T05:04:03.218Z,2.70
2023-01-31T05:05:08.218Z,2.70
2023-01-31T05:06:10.139Z,2.70
2023-01-31T05:07:11.999Z,2.70
2023-01-31T05:08:13.767Z,2.80
2023-01-31T05:09:15.488Z,2.80
2023-01-31T05:10:18.233Z,2.80
2023-01-31T05:11:20.509Z,2.80
2023-01-31T05:12:22.447Z,2.90
2023-01-31T05:13:25.420Z,2.80
2023-01-31T05:14:27.506Z,2.80
2023-01-31T05:15:29.388Z,2.90
2023-01-31T05:16:31.606Z,2.90
2023-01-31T05:17:33.829Z,2.80
2023-01-31T05:18:36.200Z,2.90
2023-01-31T05:19:38.090Z,2.90
2023-01-31T05:20:40.918Z,2.80
2023-01-31T05:21:55.581Z,2.90
2023-01-31T05:22:58.132Z,2.80
2023-01-31T05:23:59.879Z,2.80
2023-01-31T05:25:01.517Z,2.80
2023-01-31T05:26:04.812Z,2.80
2023-01-31T05:27:06.947Z,2.80
2023-01-31T05:28:08.951Z,2.80
2023-01-31T05:29:10.888Z,2.70
2023-01-31T05:30:12.724Z,2.80
2023-01-31T05:31:14.695Z,2.70
2023-01-31T05:32:17.765Z,2.70
2023-01-31T05:33:20.790Z,2.70
2023-01-31T05:34:24.182Z,2.70
2023-01-31T05:35:25.887Z,2.70
2023-01-31T05:36:27.526Z,2.70
2023-01-31T05:37:29.404Z,2.70
2023-01-31T05:38:31.366Z,2.60
2023-01-31T05:39:33.101Z,2.60
2023-01-31T05:40:34.921Z,2.60
2023-01-31T05:41:36.580Z,2.60
2023-01-31T05:42:38.290Z,2.60
2023-01-31T05:43:39.989Z,2.60
2023-01-31T05:44:41.641Z,2.60
2023-01-31T05:45:43.311Z,2.60
2023-01-31T05:46:45.189Z,2.60
2023-01-31T05:47:47.528Z,2.50
2023-01-31T05:48:49.161Z,2.50
2023-01-31T05:49:50.765Z,2.50
2023-01-31T05:50:52.393Z,2.50
2023-01-31T05:51:54.075Z,2.50
2023-01-31T05:52:58.732Z,2.50
2023-01-31T05:54:00.526Z,2.50
2023-01-31T05:55:02.787Z,2.50
2023-01-31T05:56:04.582Z,2.50
2023-01-31T05:57:06.500Z,2.50
2023-01-31T05:58:08.213Z,2.50
2023-01-31T05:59:09.836Z,2.40
2023-01-31T06:00:12.071Z,2.40
2023-01-31T06:01:13.845Z,2.40
2023-01-31T06:02:15.665Z,2.40
2023-01-31T06:03:17.533Z,2.50
2023-01-31T06:04:19.345Z,2.40
2023-01-31T06:05:21.319Z,2.40
2023-01-31T06:06:23.108Z,2.40
2023-01-31T06:07:24.812Z,2.50
2023-01-31T06:08:26.600Z,2.50
2023-01-31T06:09:28.222Z,2.50
2023-01-31T06:10:29.944Z,2.50
2023-01-31T06:11:31.890Z,2.50
2023-01-31T06:12:33.756Z,2.50
2023-01-31T06:13:35.498Z,2.60
2023-01-31T06:14:37.134Z,2.60
2023-01-31T06:15:42.598Z,2.60
2023-01-31T06:16:44.313Z,2.60
2023-01-31T06:17:45.978Z,2.60
2023-01-31T06:18:47.614Z,2.60
2023-01-31T06:19:49.642Z,2.60
2023-01-31T06:20:51.271Z,2.50
2023-01-31T06:21:52.901Z,2.60
2023-01-31T06:22:54.613Z,2.60
2023-01-31T06:23:56.332Z,2.60
2023-01-31T06:24:58.390Z,2.60
2023-01-31T06:26:00.259Z,2.60
2023-01-31T06:27:01.897Z,2.60
2023-01-31T06:28:04.715Z,2.60
2023-01-31T06:29:06.450Z,2.60
2023-01-31T06:30:08.646Z,2.60
2023-01-31T06:31:11.287Z,2.60
2023-01-31T06:32:13.228Z,2.70
2023-01-31T06:33:15.008Z,2.70
2023-01-31T06:34:16.834Z,2.70
2023-01-31T06:35:18.962Z,2.70
2023-01-31T06:36:20.730Z,2.70
2023-01-31T06:37:22.756Z,2.70
2023-01-31T06:38:24.565Z,2.70
2023-01-31T06:39:26.855Z,2.80
2023-01-31T06:40:28.661Z,2.70
2023-01-31T06:41:30.538Z,2.80
2023-01-31T06:42:32.172Z,2.70
2023-01-31T06:43:34.039Z,2.70
2023-01-31T06:44:37.810Z,2.70
2023-01-31T06:45:39.471Z,2.80
2023-01-31T06:46:41.186Z,2.80
2023-01-31T06:47:44.665Z,2.80
2023-01-31T06:48:48.198Z,2.70
2023-01-31T06:49:50.036Z,2.80
2023-01-31T06:50:51.808Z,2.80
2023-01-31T06:51:53.471Z,2.80
2023-01-31T06:52:55.216Z,2.80
2023-01-31T06:53:57.038Z,2.80
2023-01-31T06:54:58.761Z,2.80
2023-01-31T06:56:00.441Z,2.80
2023-01-31T06:57:02.133Z,2.80
2023-01-31T06:58:03.829Z,2.80
2023-01-31T06:59:05.538Z,2.80
2023-01-31T07:00:07.613Z,2.90
2023-01-31T07:01:10.857Z,2.80
2023-01-31T07:02:12.639Z,2.90
2023-01-31T07:03:14.342Z,2.90
2023-01-31T07:04:16.077Z,2.90
2023-01-31T07:05:18.526Z,2.80
2023-01-31T07:06:21.716Z,2.90
2023-01-31T07:07:23.376Z,2.90
2023-01-31T07:08:25.382Z,2.90
2023-01-31T07:09:27.053Z,2.90
2023-01-31T07:10:30.307Z,2.90
2023-01-31T07:11:32.579Z,2.90
2023-01-31T07:12:34.319Z,2.90
2023-01-31T07:13:35.959Z,2.90
2023-01-31T07:14:37.636Z,2.90
2023-01-31T07:15:39.474Z,2.90
2023-01-31T07:16:41.141Z,3.00
2023-01-31T07:17:44.148Z,3.00
2023-01-31T07:18:45.791Z,3.00
2023-01-31T07:19:47.612Z,3.00
2023-01-31T07:20:49.960Z,3.00
2023-01-31T07:21:52.374Z,3.00
2023-01-31T07:22:56.675Z,3.00
2023-01-31T07:23:58.600Z,3.00
2023-01-31T07:25:00.378Z,3.00
2023-01-31T07:26:06.051Z,3.00
2023-01-31T07:27:07.868Z,3.00
2023-01-31T07:28:10.084Z,3.00
2023-01-31T07:29:12.154Z,3.00
2023-01-31T07:30:13.864Z,3.00
2023-01-31T07:31:15.622Z,3.00
2023-01-31T07:32:17.321Z,3.00
2023-01-31T07:33:19.542Z,3.00
2023-01-31T07:34:23.028Z,3.00
2023-01-31T07:35:24.815Z,3.00
2023-01-31T07:36:26.944Z,3.00
2023-01-31T07:37:29.006Z,3.00
2023-01-31T07:38:31.522Z,3.00
2023-01-31T07:39:33.526Z,3.10
2023-01-31T07:40:35.157Z,3.10
2023-01-31T07:41:36.948Z,3.00
2023-01-31T07:42:38.952Z,3.00
2023-01-31T07:43:40.584Z,3.00
2023-01-31T07:44:42.203Z,3.00
2023-01-31T07:45:43.906Z,3.00
2023-01-31T07:46:45.808Z,3.00
2023-01-31T07:47:47.561Z,3.00
2023-01-31T07:48:49.765Z,3.00
2023-01-31T07:49:51.463Z,2.90
2023-01-31T07:50:53.955Z,2.90
2023-01-31T07:51:55.619Z,2.90
2023-01-31T07:52:57.963Z,2.90
2023-01-31T07:53:59.739Z,2.90
2023-01-31T07:55:01.425Z,2.90
2023-01-31T07:56:21.729Z,2.90
2023-01-31T07:57:23.565Z,3.00
2023-01-31T07:58:25.358Z,3.00
2023-01-31T07:59:27.083Z,3.00
2023-01-31T08:00:51.760Z,3.10
2023-01-31T08:02:12.232Z,3.10
2023-01-31T08:03:33.649Z,3.10
2023-01-31T08:04:36.083Z,3.10
2023-01-31T08:05:37.732Z,3.00
2023-01-31T08:06:39.869Z,3.10
2023-01-31T08:07:42.055Z,3.10
2023-01-31T08:08:44.301Z,3.00
2023-01-31T08:09:49.727Z,3.10
2023-01-31T08:10:51.728Z,3.10
2023-01-31T08:11:53.515Z,3.10
2023-01-31T08:12:55.180Z,3.10
2023-01-31T08:13:56.972Z,3.20
2023-01-31T08:14:58.667Z,3.20
2023-01-31T08:16:00.369Z,3.20
2023-01-31T08:17:02.310Z,3.20
2023-01-31T08:18:06.324Z,3.30
2023-01-31T08:19:08.435Z,3.30
2023-01-31T08:20:10.474Z,3.30
2023-01-31T08:21:12.875Z,3.30
2023-01-31T08:22:14.516Z,3.40
2023-01-31T08:23:16.216Z,3.30
2023-01-31T08:24:17.855Z,3.40
2023-01-31T08:25:20.736Z,3.40
2023-01-31T08:26:22.895Z,3.40
2023-01-31T08:27:24.927Z,3.40
2023-01-31T08:28:26.623Z,3.50
2023-01-31T08:29:29.501Z,3.40
2023-01-31T08:30:31.770Z,3.40
2023-01-31T08:31:33.879Z,3.50
2023-01-31T08:32:35.818Z,3.50
2023-01-31T08:33:38.345Z,3.50
2023-01-31T08:34:40.089Z,3.50
2023-01-31T08:35:41.783Z,3.50
2023-01-31T08:36:43.926Z,3.60
2023-01-31T08:37:45.583Z,3.60
2023-01-31T08:38:47.889Z,3.60
2023-01-31T08:39:49.566Z,3.50
2023-01-31T08:40:51.555Z,3.60
2023-01-31T08:41:53.253Z,3.60
2023-01-31T08:42:59.251Z,3.50
2023-01-31T08:44:02.880Z,3.50
2023-01-31T08:45:07.135Z,3.40
2023-01-31T08:46:08.815Z,3.40
2023-01-31T08:47:10.460Z,3.40
2023-01-31T08:48:12.620Z,3.40
2023-01-31T08:49:15.165Z,3.40
2023-01-31T08:50:27.158Z,3.40
2023-01-31T08:51:30.343Z,3.40
2023-01-31T08:52:35.580Z,3.40
2023-01-31T08:53:38.773Z,3.50
2023-01-31T08:54:41.161Z,3.50
2023-01-31T08:55:43.111Z,3.50
2023-01-31T08:56:44.925Z,3.50
2023-01-31T08:57:58.870Z,3.60
2023-01-31T08:59:01.711Z,3.60
2023-01-31T09:00:03.541Z,3.60
2023-01-31T09:01:07.407Z,3.60
2023-01-31T09:02:13.211Z,3.60
2023-01-31T09:03:17.103Z,3.60
2023-01-31T09:04:18.982Z,3.70
2023-01-31T09:05:21.369Z,3.70
2023-01-31T09:06:24.569Z,3.80
2023-01-31T09:07:26.410Z,3.70
2023-01-31T09:08:30.090Z,3.70
2023-01-31T09:09:31.957Z,3.70
2023-01-31T09:10:33.795Z,3.70
2023-01-31T09:11:36.208Z,3.80
2023-01-31T09:12:38.265Z,3.70
2023-01-31T09:13:40.052Z,3.80
2023-01-31T09:14:41.710Z,3.70
2023-01-31T09:15:43.406Z,3.80
2023-01-31T09:16:46.790Z,3.70
2023-01-31T09:17:48.909Z,3.80
2023-01-31T09:18:51.706Z,3.70
2023-01-31T09:19:53.541Z,3.80
2023-01-31T09:20:56.296Z,3.70
2023-01-31T09:21:58.121Z,3.80
2023-01-31T09:22:59.774Z,3.80
2023-01-31T09:24:04.783Z,3.80
2023-01-31T09:25:07.087Z,3.80
2023-01-31T09:26:09.220Z,3.80
2023-01-31T09:27:10.984Z,3.80
2023-01-31T09:28:12.681Z,3.90
2023-01-31T09:29:14.357Z,3.80
2023-01-31T09:30:16.725Z,3.80
2023-01-31T09:31:20.503Z,3.80
2023-01-31T09:32:22.292Z,3.80
2023-01-31T09:33:24.092Z,3.80
2023-01-31T09:34:25.764Z,3.90
2023-01-31T09:35:27.520Z,3.90
2023-01-31T09:36:30.197Z,3.90
2023-01-31T09:37:32.220Z,3.90
2023-01-31T09:38:34.288Z,4.00
2023-01-31T09:39:36.558Z,4.00
2023-01-31T09:40:39.818Z,4.00
2023-01-31T09:42:01.673Z,4.00
2023-01-31T09:43:03.826Z,4.00
2023-01-31T09:44:09.364Z,4.00
2023-01-31T09:45:13.594Z,4.00
2023-01-31T09:46:17.228Z,4.10
2023-01-31T09:47:28.695Z,4.00
2023-01-31T09:48:34.221Z,4.10
2023-01-31T09:49:42.330Z,4.10
2023-01-31T09:50:48.632Z,4.00
2023-01-31T09:51:54.750Z,4.10
2023-01-31T09:52:57.001Z,4.00
2023-01-31T09:53:59.850Z,4.00
2023-01-31T09:55:01.668Z,4.10
2023-01-31T09:56:09.521Z,4.10
2023-01-31T09:57:14.132Z,4.10
2023-01-31T09:58:15.807Z,4.10
2023-01-31T09:59:26.933Z,4.10
2023-01-31T10:00:31.624Z,4.20
2023-01-31T10:01:39.137Z,4.10
2023-01-31T10:02:40.761Z,4.20
2023-01-31T10:03:51.108Z,4.20
2023-01-31T10:05:01.551Z,4.20
2023-01-31T10:06:06.288Z,4.20
2023-01-31T10:07:26.870Z,4.20
2023-01-31T10:08:37.649Z,4.20
2023-01-31T10:09:44.913Z,4.20
2023-01-31T10:10:54.307Z,4.20
2023-01-31T10:12:34.763Z,4.20
2023-01-31T10:13:39.522Z,4.20
2023-01-31T10:14:52.939Z,4.20
2023-01-31T10:16:01.290Z,4.20
2023-01-31T10:17:10.216Z,4.20
2023-01-31T10:18:32.826Z,4.20
2023-01-31T10:19:46.917Z,4.20
2023-01-31T10:20:48.736Z,4.20
2023-01-31T10:21:54.046Z,4.20
2023-01-31T10:23:14.026Z,4.20
2023-01-31T10:24:18.962Z,4.20
2023-01-31T10:25:40.925Z,4.20
2023-01-31T10:26:44.350Z,4.20
2023-01-31T10:27:51.672Z,4.20
2023-01-31T10:29:11.372Z,4.30
2023-01-31T10:30:21.266Z,4.20
2023-01-31T10:31:43.879Z,4.20
2023-01-31T10:32:48.822Z,4.20
2023-01-31T10:33:52.851Z,4.20
2023-01-31T10:34:57.410Z,4.20
2023-01-31T10:36:02.214Z,4.20
2023-01-31T10:37:12.690Z,4.20
2023-01-31T10:38:18.232Z,4.20
2023-01-31T10:39:19.980Z,4.20
2023-01-31T10:40:33.895Z,4.20
2023-01-31T10:41:43.814Z,4.20
2023-01-31T10:42:52.683Z,4.20
2023-01-31T10:43:59.698Z,4.20
2023-01-31T10:45:13.470Z,4.20
2023-01-31T10:46:15.385Z,4.30
2023-01-31T10:47:17.980Z,4.30
2023-01-31T10:48:26.305Z,4.40
2023-01-31T10:49:29.017Z,4.40
2023-01-31T10:50:34.018Z,4.50
2023-01-31T10:51:56.830Z,4.50
2023-01-31T10:53:04.497Z,4.50
2023-01-31T10:54:16.417Z,4.60
2023-01-31T10:55:30.000Z,4.50
2023-01-31T10:56:32.279Z,4.50
2023-01-31T10:57:34.009Z,4.50
2023-01-31T10:58:36.956Z,4.50
2023-01-31T10:59:42.281Z,4.50
2023-01-31T11:00:44.083Z,4.50
2023-01-31T11:01:45.968Z,4.50
2023-01-31T11:02:48.078Z,4.50
2023-01-31T11:03:51.414Z,4.50
2023-01-31T11:04:54.640Z,4.50
2023-01-31T11:05:57.731Z,4.50
2023-01-31T11:07:00.435Z,4.50
2023-01-31T11:08:06.338Z,4.50
2023-01-31T11:09:12.002Z,4.50
2023-01-31T11:10:23.507Z,4.40
2023-01-31T11:11:26.274Z,4.40
2023-01-31T11:12:57.355Z,4.40
2023-01-31T11:14:00.518Z,4.40
2023-01-31T11:15:15.561Z,4.40
2023-01-31T11:16:17.284Z,4.40
2023-01-31T11:17:21.730Z,4.40
2023-01-31T11:18:35.392Z,4.40
2023-01-31T11:19:49.341Z,4.40
2023-01-31T11:20:51.390Z,4.50
2023-01-31T11:21:53.505Z,4.50
2023-01-31T11:22:57.653Z,4.50
2023-01-31T11:24:04.857Z,4.50
2023-01-31T11:25:06.953Z,4.50
2023-01-31T11:26:08.942Z,4.40
2023-01-31T11:27:13.083Z,4.40
2023-01-31T11:28:37.933Z,4.40
2023-01-31T11:29:47.413Z,4.50
2023-01-31T11:30:50.561Z,4.50
2023-01-31T11:31:52.436Z,4.50
2023-01-31T11:32:54.527Z,4.50
2023-01-31T11:33:56.290Z,4.60
2023-01-31T11:34:59.339Z,4.60
2023-01-31T11:36:07.029Z,4.60
2023-01-31T11:37:18.349Z,4.60
2023-01-31T11:38:22.330Z,4.50
2023-01-31T11:39:28.882Z,4.50
2023-01-31T11:40:33.826Z,4.50
2023-01-31T11:41:37.409Z,4.50
2023-01-31T11:42:51.114Z,4.50
2023-01-31T11:44:06.525Z,4.50
2023-01-31T11:45:19.204Z,4.60
2023-01-31T11:46:21.151Z,4.60
2023-01-31T11:47:25.900Z,4.50
2023-01-31T11:48:41.036Z,4.60
2023-01-31T11:49:43.245Z,4.50
2023-01-31T11:51:05.247Z,4.50
2023-01-31T11:52:14.598Z,4.50
2023-01-31T11:53:21.235Z,4.50
2023-01-31T11:54:28.618Z,4.60
2023-01-31T11:55:37.551Z,4.60
2023-01-31T11:56:39.314Z,4.60
2023-01-31T11:57:41.375Z,4.60
2023-01-31T11:58:43.660Z,4.60
2023-01-31T11:59:49.086Z,4.60
2023-01-31T12:00:58.533Z,4.60
2023-01-31T12:02:00.820Z,4.60
2023-01-31T12:03:08.930Z,4.60
2023-01-31T12:04:15.756Z,4.60
2023-01-31T12:05:18.280Z,4.60
2023-01-31T12:06:27.121Z,4.60
2023-01-31T12:07:32.004Z,4.60
2023-01-31T12:08:38.015Z,4.60
2023-01-31T12:09:43.992Z,4.70
2023-01-31T12:10:46.156Z,5.10
2023-01-31T12:11:52.244Z,5.20
2023-01-31T12:12:54.697Z,5.10
2023-01-31T12:14:14.590Z,5.00
2023-01-31T12:15:17.320Z,5.00
2023-01-31T12:16:23.098Z,4.90
2023-01-31T12:17:24.956Z,5.00
2023-01-31T12:18:38.877Z,5.40
2023-01-31T12:19:52.948Z,5.60
2023-01-31T12:21:13.529Z,5.50
2023-01-31T12:22:15.170Z,5.40
2023-01-31T12:23:21.779Z,5.20
2023-01-31T12:24:36.703Z,5.10
2023-01-31T12:25:41.475Z,5.00
2023-01-31T12:26:45.848Z,4.90
2023-01-31T12:28:08.642Z,4.90
2023-01-31T12:29:11.848Z,4.80
2023-01-31T12:30:16.898Z,4.80
2023-01-31T12:31:28.273Z,4.90
2023-01-31T12:32:42.159Z,4.90
2023-01-31T12:33:44.024Z,4.80
2023-01-31T12:35:08.745Z,4.80
2023-01-31T12:36:22.311Z,4.70
2023-01-31T12:37:32.728Z,4.70
2023-01-31T12:38:35.639Z,4.70
2023-01-31T12:39:55.109Z,4.70
2023-01-31T12:41:05.977Z,4.70
2023-01-31T12:42:26.403Z,4.60
2023-01-31T12:43:46.717Z,4.60
2023-01-31T12:44:50.072Z,4.60
2023-01-31T12:45:57.761Z,4.60
2023-01-31T12:47:10.385Z,4.60
2023-01-31T12:48:24.651Z,4.60
2023-01-31T12:49:38.811Z,4.60
2023-01-31T12:50:47.788Z,4.60
2023-01-31T12:52:01.368Z,4.60
2023-01-31T12:53:19.030Z,4.60
2023-01-31T12:54:31.125Z,4.60
2023-01-31T12:55:39.079Z,4.60
2023-01-31T12:57:00.803Z,4.50
2023-01-31T12:58:22.373Z,4.50
2023-01-31T12:59:29.426Z,4.50
2023-01-31T13:00:33.937Z,4.50
2023-01-31T13:01:44.242Z,4.50
2023-01-31T13:02:54.534Z,4.50
2023-01-31T13:04:04.586Z,4.50
2023-01-31T13:05:15.753Z,4.50
2023-01-31T13:06:19.707Z,4.50
2023-01-31T13:07:25.454Z,4.50
2023-01-31T13:08:28.772Z,4.50
2023-01-31T13:09:35.090Z,4.50
2023-01-31T13:10:39.062Z,4.50
2023-01-31T13:11:43.910Z,4.50
2023-01-31T13:12:46.330Z,4.50
2023-01-31T13:13:53.856Z,4.50
2023-01-31T13:14:59.482Z,4.50
2023-01-31T13:16:19.831Z,4.60
2023-01-31T13:17:24.115Z,4.60
2023-01-31T13:18:26.092Z,4.60
2023-01-31T13:19:27.950Z,4.60
2023-01-31T13:20:33.325Z,4.60
2023-01-31T13:21:39.532Z,4.60
2023-01-31T13:22:41.565Z,4.60
2023-01-31T13:23:45.072Z,4.70
2023-01-31T13:24:49.925Z,4.70
2023-01-31T13:25:54.859Z,4.60
2023-01-31T13:27:11.345Z,4.60
2023-01-31T13:28:22.290Z,4.60
2023-01-31T13:29:27.200Z,4.50
2023-01-31T13:30:43.679Z,4.60
2023-01-31T13:31:59.212Z,4.60
2023-01-31T13:33:03.680Z,4.60
2023-01-31T13:34:25.671Z,4.50
2023-01-31T13:35:31.911Z,4.50
2023-01-31T13:36:38.676Z,4.50
2023-01-31T13:37:40.821Z,4.50
2023-01-31T13:38:43.561Z,4.40
2023-01-31T13:39:48.210Z,4.50
2023-01-31T13:40:52.699Z,4.40
2023-01-31T13:41:57.111Z,4.40
2023-01-31T13:43:02.331Z,4.40
2023-01-31T13:44:04.112Z,4.40
2023-01-31T13:45:10.158Z,4.40
2023-01-31T13:46:13.030Z,4.40
2023-01-31T13:47:16.715Z,4.40
2023-01-31T13:48:25.618Z,4.40
2023-01-31T13:49:36.656Z,4.40
2023-01-31T13:50:47.234Z,4.30
2023-01-31T13:51:56.564Z,4.30
2023-01-31T13:53:01.995Z,4.30
2023-01-31T13:54:06.786Z,4.30
2023-01-31T13:55:13.752Z,4.30
2023-01-31T13:56:22.368Z,4.30
2023-01-31T13:57:25.791Z,4.30
2023-01-31T13:58:29.444Z,4.30
2023-01-31T13:59:33.004Z,4.30
2023-01-31T14:00:38.515Z,4.30
2023-01-31T14:01:45.918Z,4.30
2023-01-31T14:03:05.153Z,4.20
2023-01-31T14:04:16.900Z,4.20
2023-01-31T14:05:37.624Z,4.10
2023-01-31T14:06:54.606Z,4.10
2023-01-31T14:08:15.031Z,4.00
2023-01-31T14:09:29.669Z,4.00
2023-01-31T14:10:37.233Z,3.90
2023-01-31T14:11:44.741Z,3.90
2023-01-31T14:12:46.816Z,3.90
2023-01-31T14:13:50.201Z,3.90
2023-01-31T14:14:52.971Z,3.90
2023-01-31T14:15:55.731Z,3.90
2023-01-31T14:16:57.772Z,3.90
2023-01-31T14:18:00.972Z,3.90
2023-01-31T14:19:03.750Z,3.90
2023-01-31T14:20:24.727Z,3.90
2023-01-31T14:21:29.550Z,3.90
2023-01-31T14:22:35.235Z,3.90
2023-01-31T14:23:47.445Z,3.90
2023-01-31T14:24:56.923Z,3.80
2023-01-31T14:25:59.132Z,3.80
2023-01-31T14:27:00.902Z,3.80
2023-01-31T14:28:03.299Z,3.80
2023-01-31T14:29:15.862Z,3.70
2023-01-31T14:30:17.548Z,3.80